createdAt,value
2018-03-04T00:00:56.084Z,85.10
2018-03-04T00:03:24.913Z,87.00
2018-03-04T00:05:52.983Z,86.90
2018-03-04T00:08:21.796Z,86.90
2018-03-04T00:10:49.865Z,86.90
2018-03-04T00:13:18.016Z,86.90
2018-03-04T00:15:46.068Z,87.20
2018-03-04T00:18:14.121Z,86.60
2018-03-04T00:20:42.173Z,86.60
2018-03-04T00:23:10.228Z,86.50
2018-03-04T00:25:38.766Z,87.00
2018-03-04T00:28:06.811Z,87.20
2018-03-04T00:30:34.870Z,87.80
2018-03-04T00:33:02.953Z,87.90
2018-03-04T00:35:31.016Z,87.60
2018-03-04T00:37:59.079Z,87.80
2018-03-04T00:40:27.924Z,88.00
2018-03-04T00:42:57.541Z,88.00
2018-03-04T00:45:25.898Z,87.20
2018-03-04T00:47:55.483Z,87.60
2018-03-04T00:50:23.564Z,87.50
2018-03-04T00:52:51.667Z,87.60
2018-03-04T00:55:19.690Z,87.20
2018-03-04T00:57:47.804Z,87.00
2018-03-04T01:00:15.857Z,86.90
2018-03-04T01:02:43.927Z,87.30
2018-03-04T01:05:11.984Z,87.40
2018-03-04T01:07:40.040Z,86.30
2018-03-04T01:10:08.097Z,87.30
2018-03-04T01:12:36.157Z,86.60
2018-03-04T01:15:04.289Z,86.70
2018-03-04T01:17:32.321Z,86.30
2018-03-04T01:20:01.150Z,86.70
2018-03-04T01:22:29.316Z,86.70
2018-03-04T01:24:57.331Z,88.00
2018-03-04T01:27:25.452Z,88.30
2018-03-04T01:29:54.279Z,88.80
2018-03-04T01:32:22.334Z,88.50
2018-03-04T01:34:50.484Z,88.20
2018-03-04T01:37:18.544Z,88.20
2018-03-04T01:39:46.623Z,87.90
2018-03-04T01:42:14.701Z,87.20
2018-03-04T01:44:43.444Z,87.40
2018-03-04T01:47:11.539Z,87.70
2018-03-04T01:49:39.599Z,87.20
2018-03-04T01:52:07.802Z,87.10
2018-03-04T01:54:35.934Z,87.30
2018-03-04T01:57:03.999Z,88.00
2018-03-04T01:59:32.841Z,88.50
2018-03-04T02:02:00.890Z,88.40
2018-03-04T02:04:29.724Z,88.80
2018-03-04T02:06:57.788Z,88.70
2018-03-04T02:09:25.873Z,88.70
2018-03-04T02:11:54.026Z,88.60
2018-03-04T02:14:22.085Z,89.00
2018-03-04T02:16:50.134Z,89.30
2018-03-04T02:19:18.204Z,88.80
2018-03-04T02:21:46.340Z,88.70
2018-03-04T02:24:14.431Z,88.40
2018-03-04T02:26:42.490Z,88.70
2018-03-04T02:29:10.545Z,88.30
2018-03-04T02:31:38.604Z,88.70
2018-03-04T02:34:07.441Z,88.50
2018-03-04T02:36:35.566Z,88.40
2018-03-04T02:39:03.570Z,89.20
2018-03-04T02:41:32.412Z,89.80
2018-03-04T02:44:00.476Z,89.10
2018-03-04T02:46:29.135Z,88.60
2018-03-04T02:48:57.196Z,88.60
2018-03-04T02:51:25.266Z,89.20
2018-03-04T02:53:53.346Z,90.00
2018-03-04T02:56:21.515Z,88.90
2018-03-04T02:58:49.526Z,88.90
2018-03-04T03:01:17.607Z,88.70
2018-03-04T03:03:45.652Z,89.00
2018-03-04T03:06:14.487Z,89.10
2018-03-04T03:08:42.558Z,89.10
2018-03-04T03:11:10.624Z,88.70
2018-03-04T03:13:38.692Z,89.20
2018-03-04T03:16:07.525Z,89.30
2018-03-04T03:18:36.516Z,89.30
2018-03-04T03:21:04.602Z,89.20
2018-03-04T03:23:32.725Z,89.70
2018-03-04T03:26:00.813Z,89.50
2018-03-04T03:28:28.876Z,89.50
2018-03-04T03:30:56.954Z,89.20
2018-03-04T03:33:25.748Z,89.30
2018-03-04T03:35:53.842Z,89.30
2018-03-04T03:38:22.071Z,89.30
2018-03-04T03:40:50.100Z,89.20
2018-03-04T03:43:18.149Z,89.20
2018-03-04T03:45:47.021Z,89.00
2018-03-04T03:48:15.178Z,89.00
2018-03-04T03:50:43.270Z,89.40
2018-03-04T03:53:11.341Z,89.80
2018-03-04T03:55:39.401Z,89.90
2018-03-04T03:58:08.234Z,89.60
2018-03-04T04:00:36.300Z,89.60
2018-03-04T04:03:04.475Z,89.40
2018-03-04T04:05:32.526Z,89.80
2018-03-04T04:08:00.667Z,89.40
2018-03-04T04:10:28.727Z,90.10
2018-03-04T04:12:56.785Z,89.40
2018-03-04T04:15:24.859Z,89.50
2018-03-04T04:17:53.208Z,89.90
2018-03-04T04:20:21.239Z,90.10
2018-03-04T04:22:49.289Z,89.80
2018-03-04T04:25:17.344Z,90.20
2018-03-04T04:27:45.385Z,90.50
2018-03-04T04:30:13.447Z,91.90
2018-03-04T04:32:41.567Z,91.90
2018-03-04T04:35:09.607Z,91.30
2018-03-04T04:37:37.656Z,90.90
2018-03-04T04:40:05.732Z,90.70
2018-03-04T04:42:33.779Z,90.20
2018-03-04T04:45:01.836Z,90.10
2018-03-04T04:47:29.904Z,90.20
2018-03-04T04:49:57.989Z,89.90
2018-03-04T04:52:26.021Z,90.00
2018-03-04T04:54:54.107Z,90.00
2018-03-04T04:57:22.919Z,90.50
2018-03-04T04:59:51.742Z,89.70
2018-03-04T05:02:19.795Z,89.60
2018-03-04T05:04:48.627Z,90.00
2018-03-04T05:07:16.684Z,90.00
2018-03-04T05:09:44.787Z,90.10
2018-03-04T05:12:12.852Z,90.00
2018-03-04T05:14:41.674Z,90.00
2018-03-04T05:17:09.720Z,90.00
2018-03-04T05:19:37.851Z,90.20
2018-03-04T05:22:05.901Z,90.20
2018-03-04T05:24:34.731Z,90.40
2018-03-04T05:27:02.783Z,90.40
2018-03-04T05:29:31.604Z,90.20
2018-03-04T05:31:59.679Z,90.20
2018-03-04T05:34:28.512Z,90.60
2018-03-04T05:36:56.570Z,90.60
2018-03-04T05:39:24.635Z,90.30
2018-03-04T05:41:53.476Z,90.90
2018-03-04T05:44:21.537Z,90.60
2018-03-04T05:46:49.600Z,90.30
2018-03-04T05:49:17.639Z,90.30
2018-03-04T05:51:45.758Z,90.30
2018-03-04T05:54:13.766Z,90.10
2018-03-04T05:56:42.578Z,90.30
2018-03-04T05:59:10.664Z,90.30
2018-03-04T06:01:38.715Z,90.60
2018-03-04T06:04:07.538Z,90.70
2018-03-04T06:06:35.908Z,90.70
2018-03-04T06:09:05.567Z,90.30
2018-03-04T06:11:33.631Z,90.20
2018-03-04T06:14:01.662Z,90.20
2018-03-04T06:16:29.718Z,90.00
2018-03-04T06:18:57.782Z,90.10
2018-03-04T06:21:25.840Z,90.40
2018-03-04T06:23:54.847Z,90.40
2018-03-04T06:26:23.584Z,90.60
2018-03-04T06:28:51.640Z,90.30
2018-03-04T06:31:20.487Z,90.20
2018-03-04T06:33:48.545Z,90.20
2018-03-04T06:36:16.626Z,90.10
2018-03-04T06:38:44.828Z,90.10
2018-03-04T06:41:12.874Z,89.70
2018-03-04T06:43:41.699Z,90.10
2018-03-04T06:46:09.743Z,90.10
2018-03-04T06:48:37.819Z,90.20
2018-03-04T06:51:06.078Z,90.20
2018-03-04T06:53:34.122Z,90.40
2018-03-04T06:56:03.105Z,90.10
2018-03-04T06:58:31.452Z,90.10
2018-03-04T07:00:59.707Z,90.30
2018-03-04T07:03:28.666Z,89.90
2018-03-04T07:05:57.818Z,89.80
2018-03-04T07:08:25.852Z,90.00
2018-03-04T07:10:53.969Z,90.30
2018-03-04T07:13:22.024Z,90.00
2018-03-04T07:15:50.112Z,90.30
2018-03-04T07:18:18.339Z,90.10
2018-03-04T07:20:47.156Z,90.40
2018-03-04T07:23:15.235Z,90.40
2018-03-04T07:25:44.045Z,90.10
2018-03-04T07:28:12.116Z,90.10
2018-03-04T07:30:40.169Z,90.10
2018-03-04T07:33:08.214Z,90.20
2018-03-04T07:35:36.264Z,90.10
2018-03-04T07:38:04.323Z,90.10
2018-03-04T07:40:33.143Z,90.10
2018-03-04T07:43:01.216Z,90.10
2018-03-04T07:45:30.045Z,90.00
2018-03-04T07:47:58.098Z,90.00
2018-03-04T07:50:26.915Z,90.10
2018-03-04T07:52:54.976Z,90.10
2018-03-04T07:55:23.796Z,90.10
2018-03-04T07:57:52.620Z,90.10
2018-03-04T08:00:20.686Z,90.10
2018-03-04T08:02:49.499Z,90.10
2018-03-04T08:05:17.555Z,90.00
2018-03-04T08:07:46.368Z,89.90
2018-03-04T08:10:14.438Z,90.00
2018-03-04T08:12:43.260Z,90.20
2018-03-04T08:15:11.340Z,89.80
2018-03-04T08:17:40.135Z,89.40
2018-03-04T08:20:08.196Z,89.40
2018-03-04T08:22:37.023Z,87.30
2018-03-04T08:25:16.942Z,87.30
2018-03-04T08:27:57.318Z,86.00
2018-03-04T08:30:25.366Z,84.60
2018-03-04T08:32:53.631Z,82.50
2018-03-04T08:35:21.695Z,81.60
2018-03-04T08:37:50.513Z,78.30
2018-03-04T08:40:18.576Z,78.30
2018-03-04T08:42:46.630Z,78.20
2018-03-04T08:45:14.688Z,77.90
2018-03-04T08:47:42.746Z,77.60
2018-03-04T08:50:10.796Z,77.10
2018-03-04T08:52:38.843Z,77.10
2018-03-04T08:55:06.891Z,76.90
2018-03-04T08:57:34.932Z,76.40
2018-03-04T09:00:03.052Z,76.50
2018-03-04T09:02:31.884Z,76.60
2018-03-04T09:04:59.945Z,76.60
2018-03-04T09:07:28.154Z,76.40
2018-03-04T09:09:56.211Z,76.30
2018-03-04T09:12:24.282Z,76.00
2018-03-04T09:14:52.318Z,75.10
2018-03-04T09:17:20.373Z,74.60
2018-03-04T09:19:48.476Z,75.00
2018-03-04T09:22:18.454Z,74.20
2018-03-04T09:24:47.268Z,72.20
2018-03-04T09:27:16.107Z,70.50
2018-03-04T09:29:44.132Z,70.40
2018-03-04T09:32:12.174Z,69.60
2018-03-04T09:34:40.227Z,68.50
2018-03-04T09:37:08.270Z,67.60
2018-03-04T09:39:36.310Z,67.40
2018-03-04T09:42:04.372Z,66.90
2018-03-04T09:44:32.405Z,66.40
2018-03-04T09:47:00.460Z,67.20
2018-03-04T09:49:28.500Z,67.30
2018-03-04T09:51:57.318Z,64.50
2018-03-04T09:54:26.152Z,64.10
2018-03-04T09:56:54.204Z,64.10
2018-03-04T09:59:22.260Z,64.00
2018-03-04T10:01:50.324Z,59.30
2018-03-04T10:04:18.383Z,57.10
2018-03-04T10:06:46.460Z,53.70
2018-03-04T10:09:14.520Z,50.50
2018-03-04T10:11:42.620Z,47.80
2018-03-04T10:14:10.663Z,48.50
2018-03-04T10:16:38.728Z,48.00
2018-03-04T10:19:06.787Z,47.90
2018-03-04T10:21:34.874Z,46.00
2018-03-04T10:24:02.922Z,44.00
2018-03-04T10:26:30.970Z,44.30
2018-03-04T10:28:59.717Z,42.90
2018-03-04T10:31:27.775Z,42.30
2018-03-04T10:33:57.122Z,35.70
2018-03-04T10:36:25.185Z,35.70
2018-03-04T10:38:53.236Z,34.30
2018-03-04T10:41:21.308Z,33.50
2018-03-04T10:43:49.359Z,31.70
2018-03-04T10:46:17.447Z,30.10
2018-03-04T10:48:46.392Z,29.40
2018-03-04T10:51:14.427Z,28.60
2018-03-04T10:53:42.499Z,27.10
2018-03-04T10:56:10.612Z,25.90
2018-03-04T10:58:38.698Z,26.70
2018-03-04T11:01:10.673Z,24.80
2018-03-04T11:03:38.712Z,24.10
2018-03-04T11:06:06.870Z,24.00
2018-03-04T11:08:34.922Z,24.20
2018-03-04T11:11:03.862Z,23.20
2018-03-04T11:13:31.916Z,23.10
2018-03-04T11:15:59.965Z,22.10
2018-03-04T11:18:28.020Z,22.50
2018-03-04T11:20:56.837Z,23.40
2018-03-04T11:23:24.895Z,23.40
2018-03-04T11:25:52.952Z,22.80
2018-03-04T11:28:20.984Z,22.80
2018-03-04T11:30:49.029Z,22.00
2018-03-04T11:33:17.083Z,20.30
2018-03-04T11:35:45.133Z,19.30
2018-03-04T11:38:13.193Z,19.40
2018-03-04T11:40:42.015Z,18.50
2018-03-04T11:43:10.906Z,17.80
2018-03-04T11:45:39.539Z,17.80
2018-03-04T11:48:07.652Z,17.40
2018-03-04T11:50:35.758Z,17.90
2018-03-04T11:53:04.582Z,18.10
2018-03-04T11:55:32.649Z,17.60
2018-03-04T11:58:00.694Z,17.50
2018-03-04T12:00:28.738Z,17.00
2018-03-04T12:02:57.325Z,17.50
2018-03-04T12:05:26.141Z,16.10
2018-03-04T12:07:54.266Z,16.10
2018-03-04T12:10:22.323Z,15.70
2018-03-04T12:12:50.381Z,15.60
2018-03-04T12:15:18.440Z,16.80
2018-03-04T12:17:46.484Z,16.50
2018-03-04T12:20:14.538Z,16.30
2018-03-04T12:22:42.755Z,16.20
2018-03-04T12:25:10.807Z,17.20
2018-03-04T12:27:38.851Z,17.20
2018-03-04T12:30:07.039Z,16.60
2018-03-04T12:32:35.096Z,16.70
2018-03-04T12:35:03.155Z,17.30
2018-03-04T12:37:31.213Z,17.10
2018-03-04T12:39:59.260Z,17.50
2018-03-04T12:42:27.317Z,18.20
2018-03-04T12:44:55.415Z,19.20
2018-03-04T12:47:23.454Z,21.00
2018-03-04T12:49:51.528Z,21.70
2018-03-04T12:52:20.499Z,21.50
2018-03-04T12:54:48.538Z,21.50
2018-03-04T12:57:16.595Z,20.70
2018-03-04T12:59:45.424Z,19.70
2018-03-04T13:02:13.458Z,19.60
2018-03-04T13:04:41.516Z,19.90
2018-03-04T13:07:09.707Z,19.50
2018-03-04T13:09:37.759Z,18.90
2018-03-04T13:12:05.865Z,19.20
2018-03-04T13:14:36.432Z,20.80
2018-03-04T13:17:04.478Z,20.80
2018-03-04T13:19:32.673Z,22.10
2018-03-04T13:22:01.509Z,24.80
2018-03-04T13:24:29.556Z,24.80
2018-03-04T13:26:57.619Z,25.00
2018-03-04T13:29:25.688Z,24.80
2018-03-04T13:31:54.815Z,25.20
2018-03-04T13:34:22.977Z,26.50
2018-03-04T13:36:51.965Z,27.10
2018-03-04T13:39:20.781Z,26.30
2018-03-04T13:41:48.829Z,26.30
2018-03-04T13:44:16.870Z,26.30
2018-03-04T13:46:44.944Z,25.40
2018-03-04T13:49:12.983Z,26.40
2018-03-04T13:51:41.049Z,25.90
2018-03-04T13:54:09.119Z,25.00
2018-03-04T13:56:37.183Z,25.00
2018-03-04T13:59:05.254Z,24.60
2018-03-04T14:01:33.325Z,23.50
2018-03-04T14:04:02.148Z,23.10
2018-03-04T14:06:30.219Z,23.00
2018-03-04T14:08:58.275Z,23.20
2018-03-04T14:11:26.332Z,23.30
2018-03-04T14:13:54.391Z,23.60
2018-03-04T14:16:22.523Z,23.80
2018-03-04T14:18:50.532Z,24.80
2018-03-04T14:21:18.588Z,24.40
2018-03-04T14:23:46.652Z,24.70
2018-03-04T14:26:14.735Z,25.60
2018-03-04T14:28:42.782Z,26.20
2018-03-04T14:31:10.863Z,26.50
2018-03-04T14:33:38.933Z,27.10
2018-03-04T14:36:06.978Z,28.00
2018-03-04T14:38:35.052Z,28.70
2018-03-04T14:41:03.103Z,29.30
2018-03-04T14:43:31.157Z,30.00
2018-03-04T14:45:59.980Z,31.20
2018-03-04T14:48:28.069Z,31.20
2018-03-04T14:50:56.142Z,32.80
2018-03-04T14:53:24.222Z,34.60
2018-03-04T14:55:52.276Z,35.00
2018-03-04T14:58:20.315Z,36.20
2018-03-04T15:00:48.371Z,35.90
2018-03-04T15:03:16.447Z,36.40
2018-03-04T15:05:44.496Z,37.70
2018-03-04T15:08:12.566Z,38.10
2018-03-04T15:10:40.621Z,38.30
2018-03-04T15:13:08.694Z,38.00
2018-03-04T15:15:36.818Z,39.10
2018-03-04T15:18:04.887Z,38.90
2018-03-04T15:20:32.947Z,38.70
2018-03-04T15:23:00.996Z,39.60
2018-03-04T15:25:29.819Z,39.70
2018-03-04T15:27:57.881Z,39.70
2018-03-04T15:30:26.720Z,41.80
2018-03-04T15:32:54.757Z,41.10
2018-03-04T15:35:22.812Z,41.90
2018-03-04T15:37:50.862Z,42.60
2018-03-04T15:40:18.912Z,42.80
2018-03-04T15:42:46.990Z,43.50
2018-03-04T15:45:15.043Z,43.70
2018-03-04T15:47:43.108Z,44.30
2018-03-04T15:50:11.172Z,45.40
2018-03-04T15:52:39.217Z,46.70
2018-03-04T15:55:07.273Z,47.60
2018-03-04T15:57:35.339Z,48.80
2018-03-04T16:00:03.427Z,49.10
2018-03-04T16:02:31.497Z,49.00
2018-03-04T16:04:59.547Z,49.40
2018-03-04T16:07:28.368Z,49.30
2018-03-04T16:09:56.417Z,49.20
2018-03-04T16:12:24.496Z,49.70
2018-03-04T16:14:52.541Z,49.20
2018-03-04T16:17:20.590Z,49.70
2018-03-04T16:19:49.398Z,49.40
2018-03-04T16:22:17.459Z,49.40
2018-03-04T16:24:46.288Z,50.20
2018-03-04T16:27:14.331Z,50.20
2018-03-04T16:29:42.384Z,51.00
2018-03-04T16:32:10.447Z,51.80
2018-03-04T16:34:38.514Z,52.50
2018-03-04T16:37:06.600Z,52.60
2018-03-04T16:39:35.398Z,53.50
2018-03-04T16:42:03.464Z,53.50
2018-03-04T16:44:32.275Z,54.70
2018-03-04T16:47:01.104Z,54.80
2018-03-04T16:49:29.168Z,54.80
2018-03-04T16:51:57.235Z,55.00
2018-03-04T16:54:26.049Z,55.80
2018-03-04T16:56:54.364Z,55.70
2018-03-04T16:59:22.388Z,56.30
2018-03-04T17:01:50.658Z,57.10
2018-03-04T17:04:18.719Z,57.60
2018-03-04T17:06:46.779Z,58.00
2018-03-04T17:09:14.831Z,58.10
2018-03-04T17:11:42.897Z,58.50
2018-03-04T17:14:10.967Z,58.60
2018-03-04T17:16:39.030Z,58.80
2018-03-04T17:19:07.092Z,58.70
2018-03-04T17:21:35.150Z,58.60
2018-03-04T17:24:03.199Z,58.50
2018-03-04T17:26:31.264Z,58.60
2018-03-04T17:28:59.330Z,57.80
2018-03-04T17:31:27.370Z,57.50
2018-03-04T17:33:55.426Z,57.90
2018-03-04T17:36:23.488Z,57.20
2018-03-04T17:38:51.543Z,58.20
2018-03-04T17:41:20.364Z,58.50
2018-03-04T17:43:48.422Z,58.40
2018-03-04T17:46:17.362Z,58.50
2018-03-04T17:48:45.474Z,58.40
2018-03-04T17:51:13.550Z,58.90
2018-03-04T17:53:41.637Z,59.00
2018-03-04T17:56:09.690Z,58.90
2018-03-04T17:58:37.750Z,58.50
2018-03-04T18:01:06.562Z,58.20
2018-03-04T18:03:35.418Z,58.30
2018-03-04T18:06:03.466Z,58.20
2018-03-04T18:08:32.394Z,58.20
2018-03-04T18:11:00.456Z,58.20
2018-03-04T18:13:28.530Z,58.20
2018-03-04T18:15:57.358Z,58.50
2018-03-04T18:18:25.406Z,58.50
2018-03-04T18:20:53.755Z,58.50
2018-03-04T18:23:21.787Z,58.40
2018-03-04T18:25:50.676Z,58.40
2018-03-04T18:28:19.523Z,58.50
2018-03-04T18:30:47.613Z,58.40
2018-03-04T18:33:15.709Z,58.50
2018-03-04T18:35:43.766Z,58.50
2018-03-04T18:38:11.855Z,58.70
2018-03-04T18:40:39.973Z,58.70
2018-03-04T18:43:08.050Z,58.90
2018-03-04T18:45:36.171Z,58.90
2018-03-04T18:48:04.213Z,59.10
2018-03-04T18:50:32.305Z,59.00
2018-03-04T18:53:00.427Z,59.50
2018-03-04T18:55:28.506Z,59.80
2018-03-04T18:57:56.608Z,59.80
2018-03-04T19:00:26.015Z,60.00
2018-03-04T19:02:54.086Z,60.50
2018-03-04T19:05:22.772Z,60.60
2018-03-04T19:07:51.628Z,61.10
2018-03-04T19:10:19.695Z,61.10
2018-03-04T19:12:47.804Z,61.40
2018-03-04T19:15:15.876Z,61.80
2018-03-04T19:17:43.945Z,62.00
2018-03-04T19:20:12.005Z,62.80
2018-03-04T19:22:40.067Z,63.10
2018-03-04T19:25:08.968Z,64.20
2018-03-04T19:27:37.537Z,64.10
2018-03-04T19:30:06.232Z,64.50
2018-03-04T19:32:34.343Z,64.70
2018-03-04T19:35:03.167Z,65.90
2018-03-04T19:37:31.240Z,65.10
2018-03-04T19:40:00.683Z,65.20
2018-03-04T19:42:28.751Z,65.10
2018-03-04T19:44:57.144Z,65.40
2018-03-04T19:47:25.963Z,65.60
2018-03-04T19:49:54.032Z,65.50
2018-03-04T19:52:22.136Z,65.10
2018-03-04T19:54:50.243Z,65.20
2018-03-04T19:57:18.308Z,65.20
2018-03-04T19:59:46.443Z,65.60
2018-03-04T20:02:15.356Z,66.20
2018-03-04T20:04:43.366Z,66.20
2018-03-04T20:07:11.449Z,66.20
2018-03-04T20:09:39.499Z,66.00
2018-03-04T20:12:08.371Z,65.80
2018-03-04T20:14:36.432Z,65.70
2018-03-04T20:17:04.493Z,66.10
2018-03-04T20:19:32.676Z,66.50
2018-03-04T20:22:00.759Z,66.40
2018-03-04T20:24:29.584Z,66.80
2018-03-04T20:26:57.655Z,66.70
2018-03-04T20:29:25.733Z,66.60
2018-03-04T20:31:54.960Z,66.70
2018-03-04T20:34:23.795Z,67.40
2018-03-04T20:36:51.871Z,67.40
2018-03-04T20:39:20.000Z,67.00
2018-03-04T20:41:48.056Z,66.70
2018-03-04T20:44:16.103Z,66.90
2018-03-04T20:46:44.180Z,67.30
2018-03-04T20:49:12.246Z,67.30
2018-03-04T20:51:40.307Z,67.80
2018-03-04T20:54:09.130Z,68.00
2018-03-04T20:56:37.219Z,68.00
2018-03-04T20:59:05.267Z,67.90
2018-03-04T21:01:34.302Z,68.10
2018-03-04T21:04:02.379Z,68.20
2018-03-04T21:06:30.426Z,68.60
2018-03-04T21:08:58.478Z,69.40
2018-03-04T21:11:26.542Z,69.70
2018-03-04T21:13:54.595Z,70.20
2018-03-04T21:16:22.797Z,70.50
2018-03-04T21:18:50.869Z,70.70
2018-03-04T21:21:19.809Z,70.60
2018-03-04T21:23:47.876Z,70.50
2018-03-04T21:26:15.946Z,70.40
2018-03-04T21:28:44.771Z,70.50
2018-03-04T21:31:12.825Z,70.50
2018-03-04T21:33:41.652Z,70.60
2018-03-04T21:36:09.723Z,70.60
2018-03-04T21:38:37.813Z,70.80
2018-03-04T21:41:05.829Z,70.70
2018-03-04T21:43:33.878Z,70.30
2018-03-04T21:46:02.035Z,70.10
2018-03-04T21:48:30.856Z,70.20
2018-03-04T21:50:58.982Z,70.10
2018-03-04T21:53:27.024Z,70.30
2018-03-04T21:55:55.980Z,70.60
2018-03-04T21:58:24.177Z,70.50
2018-03-04T22:00:52.234Z,70.50
2018-03-04T22:03:20.418Z,71.10
2018-03-04T22:05:48.472Z,71.00
2018-03-04T22:08:16.550Z,71.60
2018-03-04T22:10:45.440Z,72.30
2018-03-04T22:13:14.263Z,72.80
2018-03-04T22:15:43.051Z,72.70
2018-03-04T22:18:11.873Z,72.60
2018-03-04T22:20:40.703Z,72.90
2018-03-04T22:23:08.769Z,72.30
2018-03-04T22:25:36.900Z,72.30
2018-03-04T22:28:05.740Z,71.80
2018-03-04T22:30:33.982Z,71.80
2018-03-04T22:33:02.036Z,71.80
2018-03-04T22:35:30.095Z,71.70
2018-03-04T22:37:58.164Z,71.60
2018-03-04T22:40:26.244Z,71.90
2018-03-04T22:42:54.310Z,72.30
2018-03-04T22:45:23.186Z,73.50
2018-03-04T22:47:51.184Z,72.70
2018-03-04T22:50:19.252Z,72.50
2018-03-04T22:52:47.310Z,71.50
2018-03-04T22:55:15.367Z,71.40
2018-03-04T22:57:43.431Z,71.20
2018-03-04T23:00:12.415Z,71.00
2018-03-04T23:02:40.467Z,70.90
2018-03-04T23:05:08.544Z,70.70
2018-03-04T23:07:36.644Z,71.00
2018-03-04T23:10:04.694Z,71.30
2018-03-04T23:12:32.745Z,71.20
2018-03-04T23:15:01.582Z,71.60
2018-03-04T23:17:29.634Z,71.60
2018-03-04T23:19:58.465Z,71.40
2018-03-04T23:22:26.516Z,71.40
2018-03-04T23:24:56.010Z,71.30
2018-03-04T23:27:24.076Z,71.30
2018-03-04T23:29:52.131Z,71.60
2018-03-04T23:32:20.180Z,71.60
2018-03-04T23:34:49.004Z,72.40
2018-03-04T23:37:17.816Z,71.80
2018-03-04T23:39:45.888Z,71.70
2018-03-04T23:42:13.930Z,71.60
2018-03-04T23:44:41.999Z,71.50
2018-03-04T23:47:10.047Z,71.20
2018-03-04T23:49:38.136Z,71.40
2018-03-04T23:52:06.191Z,71.40
2018-03-04T23:54:35.023Z,71.00
2018-03-04T23:57:03.092Z,71.00
2018-03-04T23:59:31.142Z,71.30
